Disclaimer

Please do not use the information listed here in-flight or in-navigation, as they are not provided to us by the airports but are provided by volunteers, so they might be outdated.

Search


Regions


Airport information page

Radio informations:
MANLEY TWR - 118.65 MHz
Ground (GND) - 121.7 MHz
Automatic Terminal Information Service (ATIS) - 127.7 MHz
MANLEY APP - 120.6 MHz

Airport informations:
Latitude: 17° 56' 08.40" N
Longitude: 076° 47' 15.00" W
Elevation: 10 feet - 3 meters
Operating hours: N/A
Operating agency: Civil government, landing fees and diplomatic clearance may be required
Timezone: UTC-5
Fuel: Jet A1, without icing nhibitor.

100/130 MIL Spec, low lead, aviation gasoline (BLUE)

Runway information:
12/30 - 8900 x 150 feet< - >2713 x 46 meters

Recent METARs:
MKJP 162200Z 12012KT 9999 FEW022 30/21 Q1011
MKJP 162300Z 36005KT 9999 FEW024CB 29/21 Q1012
MKJP 162300Z 36005KT 9999 FEW024CB 29/21 Q1012

Airport on the map: